Glendale, Rhode Island
Current Conditions -  °F | °C
As of 7:15 AM on Tuesday 27 Jan 2015 (Local Time) from KSFZ Reporting Station
Overcast Overcast  
Wind Chill: -2°   Ceiling: 300
Heat Index: 16°   Visibility: 0mi
Dew Point:   Wind: 21mph
Humidity: 68%   Direction: 360°N
Pressure: 29.5"   Gusts: 31mph
Location:  41.98°N, 71.63°W
Report Text: KSFZ 271215Z 36018G27KT M1/4SM OVC003 M09/M14 A2950 RMK AO1
Loading
Personal Weather Stations






























Interactive Weather Map New forecast layout! Learn more

10-Day Weather Forecast

Advertisements
Track Severe Weather on mobile